Terminal Aerodrome Forecast
Issued by NWS

Home | Current Version | Previous Version | Text Only | Print | Product List | Glossary Off
Versions: 1 2 3 4 5 6 7 8 9 10 11 12 13 14 15 16 17 18 19

000
FTUS43 KLSX 292322
TAFUIN
TAF
KUIN 292322Z 3000/3024 33007KT P6SM SKC
     FM300300 28004KT P6SM SCT250
     FM301500 28010KT P6SM FEW050=

USA.gov is the U.S. government's official web portal to all federal, state and local government web resources and services.